Date,TemperatureHighF,TemperatureAvgF,TemperatureLowF,DewpointHighF,DewpointAvgF,DewpointLowF,HumidityHigh,HumidityAvg,HumidityLow,PressureMaxIn,PressureMinIn,WindSpeedMaxMPH,WindSpeedAvgMPH,GustSpeedMaxMPH,PrecipitationSumIn
2013-3-1,40.0,35.5,32.0,39.0,35.0,32.0,100,98,95,0.00,40.00,3,1,14,0.40
2013-3-2,50.0,40.2,34.0,41.0,36.5,34.0,99,88,64,0.00,40.00,3,2,14,0.14
2013-3-3,38.0,32.4,26.0,37.0,28.3,20.0,99,85,58,0.00,40.00,8,3,25,0.42
2013-3-4,35.0,26.7,19.0,20.0,17.7,13.0,92,71,45,0.00,40.00,4,2,9,0.07
2013-3-5,36.0,23.4,8.0,25.0,14.6,5.0,90,71,43,0.00,40.00,4,2,10,0.00
2013-3-6,36.0,31.0,27.0,31.0,26.6,23.0,97,84,64,0.00,40.00,4,2,9,0.09
2013-3-7,45.0,34.6,30.0,33.0,30.6,29.0,98,87,53,0.00,40.00,8,2,15,0.20
2013-3-8,47.0,32.4,21.0,30.0,25.6,20.0,98,79,43,0.00,40.00,3,1,8,0.02
2013-3-9,49.0,35.0,22.0,29.0,24.2,21.0,95,69,34,0.00,40.00,5,2,10,0.00
2013-3-10,47.0,36.3,27.0,29.0,26.4,24.0,90,69,44,0.00,40.00,9,4,21,0.00
2013-3-11,46.0,37.4,31.0,28.0,23.6,14.0,83,60,27,0.00,40.00,9,4,17,0.00
2013-3-12,35.0,30.7,26.0,33.0,26.5,20.0,99,84,64,0.00,40.00,4,1,7,0.47
2013-3-13,57.0,38.4,33.0,46.0,37.1,33.0,99,95,67,0.00,40.00,3,1,6,0.54
2013-3-14,49.0,38.2,32.0,41.0,35.9,32.0,99,92,71,0.00,40.00,3,1,9,0.01
2013-3-15,54.0,43.5,35.0,38.0,31.9,28.0,92,65,41,0.00,40.00,8,3,19,0.01
2013-3-16,46.0,37.8,33.0,38.0,34.5,31.0,99,89,64,0.00,40.00,11,2,28,0.12
2013-3-17,37.0,31.2,22.0,34.0,28.0,20.0,97,88,77,0.00,40.00,6,3,20,0.35
2013-3-18,38.0,28.3,22.0,29.0,23.5,20.0,94,83,61,0.00,40.00,5,2,14,0.18
2013-3-19,45.0,29.8,13.0,25.0,19.7,10.0,93,70,30,0.00,40.00,4,2,10,0.01
2013-3-20,39.0,31.4,23.0,37.0,28.9,21.0,98,90,79,0.00,40.00,8,2,25,0.31
2013-3-21,38.0,34.0,29.0,32.0,23.8,18.0,86,67,46,0.00,40.00,8,5,23,0.14
2013-3-22,40.0,29.8,26.0,25.0,18.1,8.0,87,64,34,0.00,40.00,5,3,13,0.00
2013-3-23,40.0,25.2,15.0,20.0,11.5,7.0,91,59,26,0.00,40.00,7,2,17,0.00
2013-3-24,42.0,26.7,16.0,18.0,14.4,11.0,91,63,31,0.00,40.00,5,2,11,0.00
2013-3-25,49.0,26.6,11.0,19.0,14.4,8.0,91,65,26,0.00,40.00,4,1,11,0.00
2013-3-26,54.0,30.0,15.0,24.0,18.3,12.0,91,67,28,0.00,40.00,3,1,8,0.00
2013-3-27,55.0,33.2,20.0,27.0,22.3,18.0,93,71,30,0.00,40.00,6,1,10,0.00
2013-3-28,53.0,45.4,35.0,41.0,37.4,34.0,97,75,55,0.00,40.00,3,2,7,0.05
2013-3-29,57.0,39.7,31.0,40.0,35.2,31.0,99,86,42,0.00,40.00,4,2,16,0.05
2013-3-30,61.0,41.7,28.0,37.0,29.6,-99.9,98,72,31,0.00,40.00,7,2,11,0.04
2013-3-31,61.0,43.2,26.0,32.0,28.7,25.0,95,62,28,0.00,40.00,4,2,13,0.00